createdAt,value
2018-05-21T00:01:00.944Z,17.40
2018-05-21T00:03:28.884Z,17.50
2018-05-21T00:05:56.127Z,17.40
2018-05-21T00:08:23.299Z,17.40
2018-05-21T00:10:52.601Z,17.40
2018-05-21T00:13:19.881Z,17.40
2018-05-21T00:15:47.828Z,17.40
2018-05-21T00:18:14.996Z,17.40
2018-05-21T00:20:42.932Z,17.40
2018-05-21T00:23:10.099Z,17.40
2018-05-21T00:25:39.303Z,17.40
2018-05-21T00:28:06.468Z,17.40
2018-05-21T00:30:34.408Z,17.40
2018-05-21T00:33:01.643Z,17.40
2018-05-21T00:35:28.812Z,17.40
2018-05-21T00:37:56.025Z,17.40
2018-05-21T00:40:23.200Z,17.40
2018-05-21T00:42:50.374Z,17.40
2018-05-21T00:45:17.604Z,17.40
2018-05-21T00:47:44.776Z,17.40
2018-05-21T00:50:11.939Z,17.30
2018-05-21T00:52:39.619Z,17.40
2018-05-21T00:55:13.536Z,17.40
2018-05-21T00:57:42.524Z,17.40
2018-05-21T01:00:10.576Z,17.30
2018-05-21T01:02:37.784Z,17.40
2018-05-21T01:05:06.012Z,17.40
2018-05-21T01:07:34.143Z,17.40
2018-05-21T01:10:02.212Z,17.40
2018-05-21T01:12:30.315Z,17.30
2018-05-21T01:14:57.485Z,17.40
2018-05-21T01:17:25.176Z,17.30
2018-05-21T01:19:54.168Z,17.30
2018-05-21T01:22:23.097Z,17.30
2018-05-21T01:24:51.203Z,17.30
2018-05-21T01:27:19.271Z,17.40
2018-05-21T01:29:46.480Z,17.30
2018-05-21T01:32:13.648Z,17.30
2018-05-21T01:34:42.049Z,17.30
2018-05-21T01:37:10.508Z,17.30
2018-05-21T01:39:37.752Z,17.30
2018-05-21T01:42:08.763Z,17.40
2018-05-21T01:44:36.719Z,17.30
2018-05-21T01:47:05.584Z,17.30
2018-05-21T01:49:32.747Z,17.30
2018-05-21T01:51:59.916Z,17.30
2018-05-21T01:54:27.850Z,17.30
2018-05-21T01:56:56.859Z,17.30
2018-05-21T01:59:24.972Z,17.30
2018-05-21T02:01:52.260Z,17.30
2018-05-21T02:04:19.428Z,17.30
2018-05-21T02:06:46.643Z,17.20
2018-05-21T02:09:13.816Z,17.20
2018-05-21T02:11:41.780Z,17.20
2018-05-21T02:14:09.012Z,17.20
2018-05-21T02:16:36.320Z,17.20
2018-05-21T02:19:04.908Z,17.30
2018-05-21T02:21:32.072Z,17.20
2018-05-21T02:24:00.953Z,17.20
2018-05-21T02:26:28.120Z,17.20
2018-05-21T02:28:56.055Z,17.20
2018-05-21T02:31:23.224Z,17.20
2018-05-21T02:33:51.021Z,17.20
2018-05-21T02:36:18.192Z,17.20
2018-05-21T02:38:45.361Z,17.20
2018-05-21T02:41:12.528Z,17.20
2018-05-21T02:43:39.732Z,17.20
2018-05-21T02:46:06.904Z,17.20
2018-05-21T02:48:35.019Z,17.20
2018-05-21T02:51:02.227Z,17.20
2018-05-21T02:53:29.392Z,17.20
2018-05-21T02:55:56.610Z,17.20
2018-05-21T02:58:23.800Z,17.20
2018-05-21T03:00:53.855Z,17.20
2018-05-21T03:03:21.173Z,17.20
2018-05-21T03:05:48.384Z,17.20
2018-05-21T03:08:16.326Z,17.20
2018-05-21T03:10:43.536Z,17.20
2018-05-21T03:13:10.728Z,17.20
2018-05-21T03:15:38.875Z,17.20
2018-05-21T03:18:06.744Z,17.20
2018-05-21T03:20:33.920Z,17.20
2018-05-21T03:23:01.868Z,17.20
2018-05-21T03:25:29.044Z,17.20
2018-05-21T03:27:57.164Z,17.10
2018-05-21T03:30:25.299Z,17.10
2018-05-21T03:32:52.509Z,17.10
2018-05-21T03:35:20.024Z,17.10
2018-05-21T03:37:48.895Z,17.10
2018-05-21T03:40:16.072Z,17.10
2018-05-21T03:42:44.020Z,17.10
2018-05-21T03:45:11.239Z,17.10
2018-05-21T03:47:38.421Z,17.10
2018-05-21T03:50:05.587Z,17.10
2018-05-21T03:52:33.524Z,17.10
2018-05-21T03:55:01.195Z,17.10
2018-05-21T03:57:28.796Z,17.10
2018-05-21T04:00:02.628Z,17.20
2018-05-21T04:02:35.832Z,17.20
2018-05-21T04:05:03.462Z,17.30
2018-05-21T04:07:30.650Z,17.40
2018-05-21T04:09:58.655Z,17.50
2018-05-21T04:12:28.104Z,17.60
2018-05-21T04:14:56.325Z,17.70
2018-05-21T04:17:23.560Z,17.80
2018-05-21T04:19:51.645Z,17.80
2018-05-21T04:22:18.812Z,17.90
2018-05-21T04:24:47.487Z,17.90
2018-05-21T04:27:14.717Z,17.90
2018-05-21T04:29:41.932Z,17.90
2018-05-21T04:32:10.769Z,17.90
2018-05-21T04:34:38.017Z,17.80
2018-05-21T04:37:05.188Z,17.80
2018-05-21T04:39:32.352Z,17.80
2018-05-21T04:41:59.607Z,17.80
2018-05-21T04:44:29.128Z,17.80
2018-05-21T04:47:00.875Z,17.70
2018-05-21T04:49:28.895Z,17.80
2018-05-21T04:51:57.015Z,17.80
2018-05-21T04:54:24.179Z,17.70
2018-05-21T04:56:52.166Z,17.70
2018-05-21T04:59:20.099Z,17.70
2018-05-21T05:01:47.725Z,17.70
2018-05-21T05:04:15.297Z,17.70
2018-05-21T05:06:42.496Z,17.70
2018-05-21T05:09:10.432Z,17.70
2018-05-21T05:11:37.604Z,17.70
2018-05-21T05:14:04.773Z,17.70
2018-05-21T05:16:32.723Z,17.70
2018-05-21T05:18:59.887Z,17.70
2018-05-21T05:21:27.885Z,17.70
2018-05-21T05:23:55.148Z,17.70
2018-05-21T05:26:22.456Z,17.70
2018-05-21T05:28:49.628Z,17.70
2018-05-21T05:31:17.560Z,17.70
2018-05-21T05:33:44.801Z,17.70
2018-05-21T05:36:11.968Z,17.70
2018-05-21T05:38:39.692Z,17.70
2018-05-21T05:41:06.924Z,17.70
2018-05-21T05:43:34.896Z,17.70
2018-05-21T05:46:02.940Z,17.70
2018-05-21T05:48:30.112Z,17.70
2018-05-21T05:50:58.097Z,17.70
2018-05-21T05:53:25.267Z,17.70
2018-05-21T05:55:52.440Z,17.70
2018-05-21T05:58:20.352Z,17.70
2018-05-21T06:00:47.708Z,17.70
2018-05-21T06:03:15.647Z,17.70
2018-05-21T06:05:42.864Z,17.70
2018-05-21T06:08:10.035Z,17.70
2018-05-21T06:10:37.249Z,17.70
2018-05-21T06:13:04.422Z,17.70
2018-05-21T06:15:33.349Z,17.70
2018-05-21T06:18:01.300Z,17.70
2018-05-21T06:20:30.313Z,17.70
2018-05-21T06:22:57.483Z,17.70
2018-05-21T06:25:24.906Z,17.80
2018-05-21T06:27:53.411Z,17.80
2018-05-21T06:30:20.582Z,17.80
2018-05-21T06:32:48.516Z,17.80
2018-05-21T06:35:15.686Z,17.80
2018-05-21T06:37:43.810Z,17.80
2018-05-21T06:40:10.976Z,17.80
2018-05-21T06:42:38.876Z,17.80
2018-05-21T06:45:06.055Z,17.80
2018-05-21T06:47:33.815Z,17.80
2018-05-21T06:50:01.849Z,17.90
2018-05-21T06:52:30.744Z,17.90
2018-05-21T06:54:57.915Z,17.90
2018-05-21T06:57:28.448Z,17.90
2018-05-21T06:59:55.619Z,17.90
2018-05-21T07:02:23.573Z,17.90
2018-05-21T07:04:50.746Z,17.90
2018-05-21T07:07:19.021Z,17.90
2018-05-21T07:09:46.963Z,17.90
2018-05-21T07:12:14.172Z,17.90
2018-05-21T07:14:41.442Z,17.90
2018-05-21T07:17:08.652Z,17.90
2018-05-21T07:19:36.663Z,17.90
2018-05-21T07:22:04.772Z,17.90
2018-05-21T07:24:33.003Z,17.90
2018-05-21T07:27:00.983Z,17.90
2018-05-21T07:29:28.153Z,17.90
2018-05-21T07:31:55.319Z,17.90
2018-05-21T07:34:23.261Z,17.90
2018-05-21T07:36:51.243Z,17.80
2018-05-21T07:39:18.640Z,17.90
2018-05-21T07:41:46.575Z,17.90
2018-05-21T07:44:14.576Z,17.90
2018-05-21T07:46:42.508Z,17.90
2018-05-21T07:49:10.874Z,17.80
2018-05-21T07:51:38.101Z,17.90
2018-05-21T07:54:06.090Z,17.80
2018-05-21T07:56:34.197Z,17.80
2018-05-21T07:59:01.929Z,17.80
2018-05-21T08:01:29.890Z,17.80
2018-05-21T08:03:57.064Z,17.80
2018-05-21T08:06:25.179Z,17.80
2018-05-21T08:08:54.155Z,17.80
2018-05-21T08:11:22.504Z,17.80
2018-05-21T08:13:49.697Z,17.90
2018-05-21T08:16:19.089Z,17.90
2018-05-21T08:18:46.341Z,17.90
2018-05-21T08:21:15.104Z,17.90
2018-05-21T08:23:42.337Z,17.90
2018-05-21T08:26:09.513Z,17.90
2018-05-21T08:28:36.969Z,17.90
2018-05-21T08:31:04.163Z,18.00
2018-05-21T08:33:32.187Z,18.00
2018-05-21T08:35:59.363Z,18.00
2018-05-21T08:38:27.315Z,18.00
2018-05-21T08:40:54.561Z,18.00
2018-05-21T08:43:21.735Z,18.00
2018-05-21T08:45:48.908Z,18.00
2018-05-21T08:48:16.859Z,18.10
2018-05-21T08:50:44.028Z,18.00
2018-05-21T08:53:11.200Z,18.00
2018-05-21T08:55:39.305Z,18.00
2018-05-21T08:58:06.562Z,18.00
2018-05-21T09:00:33.731Z,18.00
2018-05-21T09:03:00.901Z,18.00
2018-05-21T09:05:28.531Z,18.00
2018-05-21T09:07:55.889Z,18.00
2018-05-21T09:10:24.070Z,18.00
2018-05-21T09:12:51.244Z,18.00
2018-05-21T09:15:18.525Z,18.00
2018-05-21T09:17:46.459Z,18.10
2018-05-21T09:20:13.689Z,18.10
2018-05-21T09:22:41.000Z,18.10
2018-05-21T09:25:08.194Z,18.10
2018-05-21T09:27:36.271Z,18.10
2018-05-21T09:30:04.315Z,18.10
2018-05-21T09:32:31.574Z,18.10
2018-05-21T09:34:58.776Z,18.10
2018-05-21T09:37:26.053Z,18.10
2018-05-21T09:39:54.000Z,18.30
2018-05-21T09:42:21.164Z,18.30
2018-05-21T09:44:49.123Z,18.40
2018-05-21T09:47:16.288Z,18.30
2018-05-21T09:49:45.133Z,18.40
2018-05-21T09:52:12.305Z,18.40
2018-05-21T09:54:39.522Z,18.40
2018-05-21T09:57:06.689Z,18.40
2018-05-21T09:59:34.013Z,18.40
2018-05-21T10:02:01.176Z,18.40
2018-05-21T10:04:29.369Z,18.40
2018-05-21T10:06:56.548Z,18.40
2018-05-21T10:09:23.728Z,18.30
2018-05-21T10:11:51.705Z,18.20
2018-05-21T10:14:19.101Z,18.20
2018-05-21T10:16:46.289Z,18.10
2018-05-21T10:19:14.534Z,18.10
2018-05-21T10:21:41.704Z,18.10
2018-05-21T10:24:08.932Z,18.00
2018-05-21T10:26:36.104Z,18.00
2018-05-21T10:29:03.284Z,18.00
2018-05-21T10:31:31.244Z,18.00
2018-05-21T10:33:58.492Z,18.00
2018-05-21T10:36:27.487Z,18.00
2018-05-21T10:38:54.651Z,18.00
2018-05-21T10:41:23.384Z,18.00
2018-05-21T10:43:50.695Z,18.00
2018-05-21T10:46:17.900Z,18.00
2018-05-21T10:48:45.114Z,18.00
2018-05-21T10:51:13.564Z,18.00
2018-05-21T10:53:40.731Z,18.00
2018-05-21T10:56:08.677Z,18.00
2018-05-21T10:58:36.732Z,18.00
2018-05-21T11:01:03.904Z,18.00
2018-05-21T11:03:31.337Z,18.00
2018-05-21T11:05:58.591Z,18.00
2018-05-21T11:08:25.764Z,18.00
2018-05-21T11:10:52.974Z,18.00
2018-05-21T11:13:20.896Z,18.00
2018-05-21T11:15:48.633Z,18.00
2018-05-21T11:18:15.801Z,18.00
2018-05-21T11:20:43.029Z,18.00
2018-05-21T11:23:11.069Z,18.00
2018-05-21T11:25:39.056Z,18.10
2018-05-21T11:28:06.222Z,18.10
2018-05-21T11:30:34.288Z,18.00
2018-05-21T11:33:01.469Z,18.00
2018-05-21T11:35:28.649Z,18.00
2018-05-21T11:37:56.631Z,18.00
2018-05-21T11:40:24.563Z,18.00
2018-05-21T11:42:51.743Z,18.00
2018-05-21T11:45:20.174Z,18.00
2018-05-21T11:47:47.429Z,18.00
2018-05-21T11:50:14.636Z,18.00
2018-05-21T11:52:43.162Z,17.90
2018-05-21T11:55:12.063Z,18.00
2018-05-21T11:57:39.232Z,17.90
2018-05-21T12:00:06.395Z,17.90
2018-05-21T12:02:33.614Z,17.90
2018-05-21T12:05:02.635Z,17.90
2018-05-21T12:07:30.708Z,17.90
2018-05-21T12:09:57.875Z,17.90
2018-05-21T12:12:25.817Z,18.00
2018-05-21T12:14:53.770Z,18.00
2018-05-21T12:17:21.880Z,18.10
2018-05-21T12:19:49.054Z,18.20
2018-05-21T12:22:17.003Z,18.50
2018-05-21T12:24:45.479Z,18.60
2018-05-21T12:27:12.644Z,18.60
2018-05-21T12:29:40.637Z,18.70
2018-05-21T12:32:07.803Z,18.70
2018-05-21T12:34:34.972Z,18.70
2018-05-21T12:37:02.152Z,18.80
2018-05-21T12:39:29.324Z,18.80
2018-05-21T12:41:58.648Z,18.80
2018-05-21T12:44:25.830Z,18.80
2018-05-21T12:46:53.788Z,18.80
2018-05-21T12:49:21.444Z,18.80
2018-05-21T12:51:48.617Z,18.70
2018-05-21T12:54:15.789Z,18.70
2018-05-21T12:56:42.961Z,18.70
2018-05-21T12:59:11.679Z,18.70
2018-05-21T13:01:39.432Z,18.70
2018-05-21T13:04:07.371Z,18.70
2018-05-21T13:06:34.539Z,18.70
2018-05-21T13:09:03.051Z,18.70
2018-05-21T13:11:30.223Z,18.70
2018-05-21T13:13:57.391Z,18.70
2018-05-21T13:16:24.631Z,18.70
2018-05-21T13:18:51.815Z,18.70
2018-05-21T13:21:18.988Z,18.70
2018-05-21T13:23:46.964Z,18.70
2018-05-21T13:26:14.975Z,18.70
2018-05-21T13:28:42.146Z,18.70
2018-05-21T13:31:10.833Z,18.60
2018-05-21T13:33:38.004Z,18.60
2018-05-21T13:36:05.215Z,18.60
2018-05-21T13:38:32.385Z,18.60
2018-05-21T13:40:59.555Z,18.60
2018-05-21T13:43:26.720Z,18.60
2018-05-21T13:45:54.706Z,18.50
2018-05-21T13:48:22.425Z,18.50
2018-05-21T13:50:49.592Z,18.50
2018-05-21T13:53:16.763Z,18.50
2018-05-21T13:55:44.692Z,18.50
2018-05-21T13:58:11.930Z,18.50
2018-05-21T14:00:39.100Z,18.50
2018-05-21T14:03:06.268Z,18.50
2018-05-21T14:05:33.445Z,18.50
2018-05-21T14:08:01.376Z,18.50
2018-05-21T14:10:28.555Z,18.50
2018-05-21T14:12:56.681Z,18.50
2018-05-21T14:18:10.079Z,18.50
2018-05-21T14:20:37.251Z,18.50
2018-05-21T14:23:05.197Z,18.40
2018-05-21T14:25:32.468Z,18.40
2018-05-21T14:27:59.571Z,18.40
2018-05-21T14:30:26.737Z,18.40
2018-05-21T14:32:54.000Z,18.40
2018-05-21T14:35:21.204Z,18.40
2018-05-21T14:37:48.380Z,18.40
2018-05-21T14:40:16.443Z,18.40
2018-05-21T14:42:43.655Z,18.40
2018-05-21T14:45:11.592Z,18.40
2018-05-21T14:47:38.813Z,18.40
2018-05-21T14:50:05.982Z,18.40
2018-05-21T14:52:33.224Z,18.40
2018-05-21T14:55:00.409Z,18.40
2018-05-21T14:57:27.588Z,18.40
2018-05-21T14:59:56.437Z,18.40
2018-05-21T15:02:24.499Z,18.40
2018-05-21T15:04:51.676Z,18.40
2018-05-21T15:07:18.880Z,18.40
2018-05-21T15:09:46.051Z,18.40
2018-05-21T15:12:14.063Z,18.40
2018-05-21T15:14:42.001Z,18.40
2018-05-21T15:17:09.169Z,18.40
2018-05-21T15:19:36.336Z,18.40
2018-05-21T15:22:04.389Z,18.30
2018-05-21T15:24:31.516Z,18.30
2018-05-21T15:26:58.768Z,18.30
2018-05-21T15:29:25.935Z,18.30
2018-05-21T15:31:53.101Z,18.30
2018-05-21T15:34:20.267Z,18.30
2018-05-21T15:36:48.208Z,18.30
2018-05-21T15:39:15.422Z,18.30
2018-05-21T15:41:42.592Z,18.30
2018-05-21T15:44:09.795Z,18.30
2018-05-21T15:46:37.727Z,18.30
2018-05-21T15:49:04.932Z,18.30
2018-05-21T15:51:32.904Z,18.30
2018-05-21T15:54:00.120Z,18.30
2018-05-21T15:56:27.288Z,18.30
2018-05-21T15:58:56.032Z,18.30
2018-05-21T16:01:24.102Z,18.20
2018-05-21T16:03:51.899Z,18.20
2018-05-21T16:06:19.103Z,18.20
2018-05-21T16:08:46.272Z,18.30
2018-05-21T16:11:14.446Z,18.20
2018-05-21T16:13:41.612Z,18.20
2018-05-21T16:16:08.780Z,18.20
2018-05-21T16:18:35.944Z,18.20
2018-05-21T16:21:04.837Z,18.20
2018-05-21T16:23:32.775Z,18.20
2018-05-21T16:25:59.948Z,18.20
2018-05-21T16:28:27.165Z,18.30
2018-05-21T16:30:54.645Z,18.30
2018-05-21T16:33:21.912Z,18.30
2018-05-21T16:35:49.911Z,18.30
2018-05-21T16:38:18.760Z,18.20
2018-05-21T16:40:46.828Z,18.20
2018-05-21T16:43:14.918Z,18.20
2018-05-21T16:45:42.604Z,18.20
2018-05-21T16:48:10.615Z,18.20
2018-05-21T16:50:37.788Z,18.20
2018-05-21T16:53:05.748Z,18.20
2018-05-21T16:55:34.734Z,18.20
2018-05-21T16:58:02.833Z,18.20
2018-05-21T17:00:30.861Z,18.20
2018-05-21T17:02:58.772Z,18.20
2018-05-21T17:05:25.943Z,18.20
2018-05-21T17:07:53.883Z,18.20
2018-05-21T17:10:21.094Z,18.20
2018-05-21T17:12:48.264Z,18.20
2018-05-21T17:15:15.664Z,18.20
2018-05-21T17:17:42.832Z,18.20
2018-05-21T17:20:10.954Z,18.20
2018-05-21T17:22:38.184Z,18.20
2018-05-21T17:25:05.359Z,18.10
2018-05-21T17:27:32.535Z,18.10
2018-05-21T17:29:59.707Z,18.10
2018-05-21T17:32:27.652Z,18.20
2018-05-21T17:34:55.751Z,18.20
2018-05-21T17:37:24.530Z,18.10
2018-05-21T17:39:52.649Z,18.20
2018-05-21T17:42:19.902Z,18.20
2018-05-21T17:44:47.065Z,18.10
2018-05-21T17:47:14.272Z,18.10
2018-05-21T17:49:42.246Z,18.10
2018-05-21T17:52:10.188Z,18.20
2018-05-21T17:54:37.399Z,18.20
2018-05-21T17:57:04.569Z,18.30
2018-05-21T17:59:31.781Z,18.40
2018-05-21T18:02:00.510Z,18.60
2018-05-21T18:04:28.449Z,18.60
2018-05-21T18:06:56.528Z,18.70
2018-05-21T18:09:23.700Z,18.80
2018-05-21T18:11:50.881Z,18.80
2018-05-21T18:14:18.092Z,18.80
2018-05-21T18:16:45.260Z,18.90
2018-05-21T18:19:12.432Z,18.90
2018-05-21T18:21:39.607Z,18.90
2018-05-21T18:24:06.778Z,18.90
2018-05-21T18:26:34.718Z,18.90
2018-05-21T18:29:02.009Z,18.90
2018-05-21T18:31:29.199Z,18.90
2018-05-21T18:33:56.363Z,18.90
2018-05-21T18:36:24.411Z,18.80
2018-05-21T18:38:53.021Z,18.80
2018-05-21T18:41:21.348Z,18.80
2018-05-21T18:43:48.535Z,18.80
2018-05-21T18:46:15.887Z,18.80
2018-05-21T18:48:43.487Z,18.80
2018-05-21T18:51:11.021Z,18.80
2018-05-21T18:53:39.079Z,18.70
2018-05-21T18:56:06.297Z,18.70
2018-05-21T18:58:34.483Z,18.70
2018-05-21T19:01:02.773Z,18.70
2018-05-21T19:03:30.146Z,18.70
2018-05-21T19:05:57.560Z,18.70
2018-05-21T19:08:25.878Z,18.60
2018-05-21T19:10:53.127Z,18.60
2018-05-21T19:13:20.436Z,18.60
2018-05-21T19:15:47.662Z,18.60
2018-05-21T19:18:14.912Z,18.60
2018-05-21T19:20:42.106Z,18.50
2018-05-21T19:23:10.156Z,18.50
2018-05-21T19:25:38.187Z,18.50
2018-05-21T19:28:05.428Z,18.50
2018-05-21T19:30:32.805Z,18.50
2018-05-21T19:33:00.084Z,18.50
2018-05-21T19:35:28.072Z,18.40
2018-05-21T19:37:56.524Z,18.40
2018-05-21T19:40:23.749Z,18.40
2018-05-21T19:42:50.902Z,18.40
2018-05-21T19:45:18.120Z,18.40
2018-05-21T19:47:46.056Z,18.40
2018-05-21T19:50:14.029Z,18.40
2018-05-21T19:52:41.354Z,18.40
2018-05-21T19:55:08.575Z,18.40
2018-05-21T19:57:35.864Z,18.40
2018-05-21T20:00:03.115Z,18.40
2018-05-21T20:02:30.400Z,18.40
2018-05-21T20:04:57.572Z,18.40
2018-05-21T20:07:24.827Z,18.40
2018-05-21T20:09:51.971Z,18.40
2018-05-21T20:12:19.912Z,18.30
2018-05-21T20:14:47.085Z,18.30
2018-05-21T20:17:14.259Z,18.30
2018-05-21T20:19:42.201Z,18.30
2018-05-21T20:22:09.407Z,18.30
2018-05-21T20:24:36.580Z,18.30
2018-05-21T20:27:03.801Z,18.30
2018-05-21T20:29:30.976Z,18.30
2018-05-21T20:31:58.192Z,18.30
2018-05-21T20:34:25.376Z,18.30
2018-05-21T20:36:52.620Z,18.30
2018-05-21T20:39:19.792Z,18.30
2018-05-21T20:41:47.862Z,18.30
2018-05-21T20:44:15.060Z,18.30
2018-05-21T20:46:43.003Z,18.20
2018-05-21T20:49:10.216Z,18.20
2018-05-21T20:51:37.382Z,18.20
2018-05-21T20:54:04.597Z,18.20
2018-05-21T20:56:32.528Z,18.20
2018-05-21T20:58:59.747Z,18.20
2018-05-21T21:01:26.911Z,18.20
2018-05-21T21:03:54.075Z,18.20
2018-05-21T21:06:21.348Z,18.20
2018-05-21T21:08:48.520Z,18.20
2018-05-21T21:11:16.457Z,18.20
2018-05-21T21:13:43.628Z,18.20
2018-05-21T21:16:11.623Z,18.20
2018-05-21T21:18:38.808Z,18.10
2018-05-21T21:21:05.972Z,18.10
2018-05-21T21:23:33.141Z,18.10
2018-05-21T21:26:00.308Z,18.10
2018-05-21T21:28:28.268Z,18.10
2018-05-21T21:30:55.478Z,18.10
2018-05-21T21:33:23.576Z,18.10
2018-05-21T21:35:50.787Z,18.10
2018-05-21T21:38:18.972Z,18.10
2018-05-21T21:40:46.916Z,18.10
2018-05-21T21:43:14.892Z,18.10
2018-05-21T21:45:42.061Z,18.10
2018-05-21T21:48:09.275Z,18.10
2018-05-21T21:50:37.207Z,18.10
2018-05-21T21:53:04.457Z,18.00
2018-05-21T21:55:31.708Z,18.10
2018-05-21T21:57:58.877Z,18.00
2018-05-21T22:00:26.048Z,18.00
2018-05-21T22:02:54.003Z,18.00
2018-05-21T22:05:22.089Z,18.00
2018-05-21T22:07:50.188Z,18.00
2018-05-21T22:10:19.125Z,18.00
2018-05-21T22:12:47.127Z,18.00
2018-05-21T22:15:15.888Z,18.00
2018-05-21T22:17:43.953Z,18.00
2018-05-21T22:20:11.164Z,18.00
2018-05-21T22:22:39.897Z,17.90
2018-05-21T22:25:07.972Z,17.90
2018-05-21T22:27:35.135Z,17.90
2018-05-21T22:30:02.303Z,17.90
2018-05-21T22:32:29.485Z,17.90
2018-05-21T22:34:57.590Z,17.90
2018-05-21T22:37:25.687Z,17.90
2018-05-21T22:39:52.857Z,17.90
2018-05-21T22:42:20.021Z,17.90
2018-05-21T22:44:48.037Z,17.90
2018-05-21T22:47:15.257Z,17.90
2018-05-21T22:49:42.439Z,17.90
2018-05-21T22:52:09.600Z,17.90
2018-05-21T22:54:36.768Z,17.90
2018-05-21T22:57:03.942Z,17.90
2018-05-21T22:59:31.883Z,17.90
2018-05-21T23:01:59.109Z,17.90
2018-05-21T23:04:26.281Z,17.90
2018-05-21T23:06:53.444Z,17.90
2018-05-21T23:09:20.608Z,17.90
2018-05-21T23:11:47.784Z,17.90
2018-05-21T23:14:15.713Z,17.90
2018-05-21T23:16:42.944Z,17.90
2018-05-21T23:19:10.111Z,17.80
2018-05-21T23:21:37.280Z,17.80
2018-05-21T23:24:05.284Z,17.80
2018-05-21T23:26:34.019Z,17.80
2018-05-21T23:29:02.215Z,17.80
2018-05-21T23:31:30.154Z,17.80
2018-05-21T23:33:57.320Z,17.80
2018-05-21T23:36:25.350Z,17.80
2018-05-21T23:38:52.519Z,17.80
2018-05-21T23:41:19.777Z,17.80
2018-05-21T23:43:46.996Z,17.80
2018-05-21T23:46:15.856Z,17.80
2018-05-21T23:48:43.923Z,17.80
2018-05-21T23:51:11.992Z,17.80
2018-05-21T23:53:39.223Z,17.80
2018-05-21T23:56:06.397Z,17.80
2018-05-21T23:58:33.632Z,17.80
